Time;durP1;ratioP1;P1;durP2;ratioP2;P2;SDS_P1;SDS_P2;PMS_P1;PMS_P2;Temp;Humidity;BMP_temperature;BMP_pressure;BME280_temperature;BME280_humidity;BME280_pressure;Samples;Min_cycle;Max_cycle;Signal;HPM_P1;HPM_P2
2022/09/02 00:00:59;;;;;;;2.23;2.00;;;18.00;99.40;;;;;;5072093;28;20239;-82
2022/09/02 00:03:27;;;;;;;2.00;1.90;;;17.90;99.90;;;;;;5072040;28;20269;-83
2022/09/02 00:05:53;;;;;;;3.17;1.70;;;18.00;99.90;;;;;;5073522;28;20568;-83
2022/09/02 00:08:18;;;;;;;1.73;1.63;;;17.80;99.90;;;;;;5073532;28;20175;-83
2022/09/02 00:10:44;;;;;;;2.50;2.10;;;17.90;99.90;;;;;;5073179;28;20258;-82
2022/09/02 00:13:14;;;;;;;3.23;1.87;;;18.00;99.90;;;;;;5073220;28;20181;-83
2022/09/02 00:15:41;;;;;;;1.90;1.70;;;18.00;99.90;;;;;;5073037;28;20588;-83
2022/09/02 00:18:12;;;;;;;1.90;1.80;;;18.00;99.90;;;;;;5073525;28;20513;-83
2022/09/02 00:20:45;;;;;;;2.57;2.00;;;17.90;99.90;;;;;;5074276;28;20160;-83
2022/09/02 00:23:12;;;;;;;1.70;1.50;;;17.90;99.90;;;;;;5074334;28;20528;-83
2022/09/02 00:25:38;;;;;;;2.10;1.90;;;17.80;99.90;;;;;;5074562;28;20195;-83
2022/09/02 00:28:05;;;;;;;1.60;1.50;;;17.80;99.90;;;;;;5074342;28;20613;-83
2022/09/02 00:30:32;;;;;;;1.77;1.77;;;17.70;99.90;;;;;;5074490;28;20172;-83
2022/09/02 00:32:58;;;;;;;1.93;1.80;;;17.70;99.90;;;;;;5087382;28;20532;-82
2022/09/02 00:35:25;;;;;;;1.70;1.60;;;17.70;99.90;;;;;;5077666;28;20182;-82
2022/09/02 00:37:51;;;;;;;2.00;1.90;;;17.60;99.90;;;;;;5073964;28;20175;-84
2022/09/02 00:40:17;;;;;;;2.00;1.40;;;17.70;99.90;;;;;;5072927;28;20171;-83
2022/09/02 00:42:43;;;;;;;3.40;1.80;;;17.70;99.90;;;;;;5072805;28;20175;-82
2022/09/02 00:45:11;;;;;;;2.27;1.40;;;17.70;99.90;;;;;;5072856;28;20225;-83
2022/09/02 00:47:37;;;;;;;2.43;1.83;;;17.50;99.90;;;;;;5072651;28;20634;-82
2022/09/02 00:50:08;;;;;;;2.57;1.70;;;17.50;99.90;;;;;;5072654;28;20540;-84
2022/09/02 00:52:39;;;;;;;2.33;1.63;;;17.50;99.90;;;;;;5072402;28;20182;-83
2022/09/02 00:55:12;;;;;;;3.27;1.83;;;17.50;99.90;;;;;;5072410;28;20205;-83
2022/09/02 00:58:19;;;;;;;1.97;1.60;;;17.50;99.90;;;;;;5072183;28;20301;-83
2022/09/02 01:00:47;;;;;;;3.90;1.53;;;17.60;99.90;;;;;;5072389;28;20170;-84
2022/09/02 01:03:17;;;;;;;1.50;1.50;;;17.50;99.90;;;;;;5071896;28;20183;-83
2022/09/02 01:05:45;;;;;;;1.67;1.57;;;17.40;99.90;;;;;;5070966;28;20215;-83
2022/09/02 01:08:14;;;;;;;2.13;1.93;;;17.40;99.90;;;;;;5072645;28;20168;-84
2022/09/02 01:10:41;;;;;;;2.13;1.70;;;17.50;99.90;;;;;;5070814;28;20175;-84
2022/09/02 01:13:10;;;;;;;2.93;1.90;;;17.40;99.90;;;;;;5071146;28;20200;-84
2022/09/02 01:15:42;;;;;;;2.00;1.90;;;17.40;99.90;;;;;;5072059;28;20945;-84
2022/09/02 01:18:12;;;;;;;3.40;1.90;;;17.30;99.90;;;;;;5072019;28;20171;-84
2022/09/02 01:20:38;;;;;;;2.60;1.90;;;17.40;99.90;;;;;;5072229;28;20181;-84
2022/09/02 01:23:04;;;;;;;2.10;2.00;;;17.40;99.90;;;;;;5071871;28;20642;-82
2022/09/02 01:25:33;;;;;;;2.13;1.70;;;17.40;99.90;;;;;;5071812;28;20249;-83
2022/09/02 01:28:09;;;;;;;1.77;1.67;;;17.40;99.90;;;;;;5070568;28;20179;-84
2022/09/02 01:30:37;;;;;;;1.80;1.80;;;17.40;99.90;;;;;;5071640;28;20697;-83
2022/09/02 01:33:03;;;;;;;3.20;1.83;;;17.30;99.90;;;;;;5071793;28;20199;-83
2022/09/02 01:35:29;;;;;;;1.60;1.50;;;17.30;99.90;;;;;;5071534;28;20262;-82
2022/09/02 01:37:57;;;;;;;2.10;1.90;;;17.30;99.90;;;;;;5071596;28;20189;-82
2022/09/02 01:40:25;;;;;;;4.07;1.90;;;17.40;99.90;;;;;;5071636;28;20249;-82
2022/09/02 01:43:01;;;;;;;1.90;1.60;;;17.40;99.90;;;;;;5071450;28;20569;-82
2022/09/02 01:45:28;;;;;;;3.53;1.90;;;17.30;99.90;;;;;;5071712;28;20203;-82
2022/09/02 01:47:53;;;;;;;1.70;1.60;;;17.30;99.90;;;;;;5071388;28;20174;-82
2022/09/02 01:50:19;;;;;;;2.87;2.00;;;17.30;99.90;;;;;;5071494;28;20588;-82
2022/09/02 01:52:45;;;;;;;4.67;2.00;;;17.30;99.90;;;;;;5069772;28;20228;-82
2022/09/02 01:55:11;;;;;;;2.37;2.17;;;17.40;99.90;;;;;;5071540;28;20760;-82
2022/09/02 01:57:37;;;;;;;3.80;1.90;;;17.40;99.90;;;;;;5069525;28;20223;-84
2022/09/02 02:00:06;;;;;;;2.33;2.13;;;17.30;99.90;;;;;;5071492;28;20175;-83
2022/09/02 02:02:33;;;;;;;1.70;1.60;;;17.30;99.90;;;;;;5072643;28;20640;-82
2022/09/02 02:04:58;;;;;;;2.27;1.80;;;17.20;99.90;;;;;;5070986;28;20609;-82
2022/09/02 02:07:24;;;;;;;2.20;1.80;;;17.30;99.90;;;;;;5072718;28;20278;-82
2022/09/02 02:09:50;;;;;;;1.80;1.70;;;17.20;99.90;;;;;;5076069;28;20183;-83
2022/09/02 02:12:16;;;;;;;3.27;1.70;;;17.20;99.90;;;;;;5095020;28;20183;-83
2022/09/02 02:14:42;;;;;;;2.97;1.67;;;17.20;99.90;;;;;;5088365;28;20171;-82
2022/09/02 02:17:08;;;;;;;2.10;1.90;;;17.20;99.90;;;;;;5072190;28;20171;-82
2022/09/02 02:19:35;;;;;;;2.07;1.97;;;17.30;99.90;;;;;;5071402;28;20820;-82
2022/09/02 02:22:01;;;;;;;5.73;1.73;;;17.20;99.90;;;;;;5071042;28;20175;-82
2022/09/02 02:24:27;;;;;;;4.10;1.90;;;17.20;99.90;;;;;;5070412;28;20179;-84
2022/09/02 02:26:53;;;;;;;2.70;1.80;;;17.10;99.90;;;;;;5070792;28;20206;-83
2022/09/02 02:29:19;;;;;;;1.70;1.60;;;17.10;99.90;;;;;;5070586;28;20212;-83
2022/09/02 02:31:45;;;;;;;3.30;1.83;;;17.00;99.90;;;;;;5070459;28;20250;-82
2022/09/02 02:34:12;;;;;;;1.80;1.70;;;17.00;99.90;;;;;;5069282;28;20266;-83
2022/09/02 02:36:38;;;;;;;1.60;1.50;;;17.00;99.90;;;;;;5070408;28;20202;-82
2022/09/02 02:39:07;;;;;;;2.17;1.50;;;17.10;99.90;;;;;;5070481;28;20262;-82
2022/09/02 02:41:33;;;;;;;1.70;1.60;;;17.10;99.90;;;;;;5070397;28;20198;-83
2022/09/02 02:43:59;;;;;;;1.83;1.83;;;17.10;99.90;;;;;;5070363;28;20634;-83
2022/09/02 02:46:25;;;;;;;4.27;2.00;;;17.10;99.90;;;;;;5070334;28;20207;-82
2022/09/02 02:48:51;;;;;;;1.90;1.70;;;17.00;99.90;;;;;;5070150;28;20163;-82
2022/09/02 02:51:17;;;;;;;2.30;2.10;;;17.00;99.90;;;;;;5070218;28;20174;-82
2022/09/02 02:53:43;;;;;;;3.43;1.80;;;17.10;99.90;;;;;;5068974;28;20672;-82
2022/09/02 02:56:10;;;;;;;2.90;2.00;;;17.00;99.90;;;;;;5070530;28;20552;-81
2022/09/02 02:58:36;;;;;;;1.70;1.60;;;17.00;99.90;;;;;;5069961;28;20223;-81
2022/09/02 03:01:02;;;;;;;1.60;1.60;;;17.10;99.90;;;;;;5070179;28;20174;-82
2022/09/02 03:03:30;;;;;;;2.10;2.00;;;17.10;99.90;;;;;;5070511;28;20175;-82
2022/09/02 03:05:56;;;;;;;2.23;1.60;;;17.10;99.90;;;;;;5070067;28;20705;-82
2022/09/02 03:08:25;;;;;;;2.37;1.73;;;17.10;99.90;;;;;;5070067;28;20171;-82
2022/09/02 03:10:53;;;;;;;1.90;1.80;;;17.10;99.90;;;;;;5070173;28;20265;-82
2022/09/02 03:13:20;;;;;;;1.90;1.80;;;17.10;99.90;;;;;;5070083;28;20171;-82
2022/09/02 03:15:46;;;;;;;5.43;1.70;;;17.10;99.90;;;;;;5069956;28;20179;-81
2022/09/02 03:18:12;;;;;;;2.20;2.00;;;17.10;99.90;;;;;;5069932;28;20647;-81
2022/09/02 03:20:39;;;;;;;5.53;1.97;;;17.10;99.90;;;;;;5068353;28;20187;-81
2022/09/02 03:23:06;;;;;;;3.17;1.40;;;16.90;99.90;;;;;;5069979;28;20257;-82
2022/09/02 03:25:33;;;;;;;1.90;1.80;;;16.90;99.90;;;;;;5069791;28;20324;-82
2022/09/02 03:27:59;;;;;;;2.33;1.77;;;16.90;99.90;;;;;;5070094;28;20555;-81
2022/09/02 03:30:27;;;;;;;2.80;1.77;;;16.90;99.90;;;;;;5069699;28;20810;-81
2022/09/02 03:32:54;;;;;;;2.07;1.93;;;16.90;99.90;;;;;;5069788;28;20569;-81
2022/09/02 03:35:21;;;;;;;1.83;1.60;;;16.90;99.90;;;;;;5070016;28;20177;-82
2022/09/02 03:37:49;;;;;;;1.80;1.70;;;16.90;99.90;;;;;;5073916;28;20175;-82
2022/09/02 03:40:19;;;;;;;4.00;1.77;;;16.90;99.90;;;;;;5074208;28;20189;-81
2022/09/02 03:42:45;;;;;;;1.90;1.80;;;16.80;99.90;;;;;;5075273;28;20171;-81
2022/09/02 03:45:15;;;;;;;1.60;1.60;;;16.70;99.90;;;;;;5074564;28;20202;-81
2022/09/02 03:47:49;;;;;;;3.40;1.90;;;16.70;99.90;;;;;;5075546;28;20228;-81
2022/09/02 03:50:38;;;;;;;2.40;1.80;;;16.70;99.90;;;;;;5090900;28;20242;-82
2022/09/02 03:53:06;;;;;;;3.23;3.03;;;16.70;99.90;;;;;;5088627;28;20280;-83
2022/09/02 03:55:32;;;;;;;3.10;1.87;;;16.60;99.90;;;;;;5073907;28;20171;-82
2022/09/02 03:57:58;;;;;;;2.10;2.00;;;16.60;99.90;;;;;;5073248;28;20229;-82
2022/09/02 04:00:28;;;;;;;1.80;1.70;;;16.60;99.90;;;;;;5073651;28;20175;-82
2022/09/02 04:02:54;;;;;;;2.70;1.90;;;16.50;99.90;;;;;;5072269;28;20180;-82
2022/09/02 04:05:22;;;;;;;3.13;2.10;;;16.60;99.90;;;;;;5073702;28;20226;-82
2022/09/02 04:07:51;;;;;;;1.93;1.80;;;16.60;99.90;;;;;;5071828;28;20203;-83
2022/09/02 04:10:20;;;;;;;3.53;1.90;;;16.50;99.90;;;;;;5073122;28;20167;-83
2022/09/02 04:12:48;;;;;;;2.17;1.80;;;16.50;99.90;;;;;;5073261;28;20353;-82
2022/09/02 04:15:13;;;;;;;4.60;2.57;;;16.40;99.90;;;;;;5073146;28;20219;-82
2022/09/02 04:17:41;;;;;;;3.67;1.90;;;16.40;99.90;;;;;;5072780;28;20172;-81
2022/09/02 04:20:11;;;;;;;2.10;2.00;;;16.30;99.90;;;;;;5073131;28;20182;-81
2022/09/02 04:22:37;;;;;;;3.03;2.07;;;16.30;99.90;;;;;;5073411;28;20508;-81
2022/09/02 04:25:04;;;;;;;2.43;2.07;;;16.30;99.90;;;;;;5072822;28;20231;-81
2022/09/02 04:27:30;;;;;;;3.53;1.93;;;16.30;99.90;;;;;;5075759;28;20179;-81
2022/09/02 04:29:56;;;;;;;3.70;1.70;;;16.40;99.90;;;;;;5073106;28;20178;-81
2022/09/02 04:32:22;;;;;;;3.63;1.97;;;16.30;99.90;;;;;;5072704;28;20254;-82
2022/09/02 04:34:48;;;;;;;4.63;2.00;;;16.30;99.90;;;;;;5072980;28;20186;-82
2022/09/02 04:37:14;;;;;;;1.90;1.80;;;16.40;99.90;;;;;;5072947;28;20187;-82
2022/09/02 04:39:40;;;;;;;11.53;2.30;;;16.40;99.90;;;;;;5072894;28;20175;-81
2022/09/02 04:42:06;;;;;;;2.60;1.87;;;16.40;99.90;;;;;;5073362;28;20320;-81
2022/09/02 04:44:32;;;;;;;2.37;1.70;;;16.40;99.90;;;;;;5073834;28;20669;-81
2022/09/02 04:46:58;;;;;;;4.83;1.87;;;16.40;99.90;;;;;;5071705;28;20735;-81
2022/09/02 04:49:24;;;;;;;5.90;1.90;;;16.50;99.90;;;;;;5073659;28;20269;-83
2022/09/02 04:51:49;;;;;;;5.00;2.80;;;16.50;99.90;;;;;;5072439;28;20625;-82
2022/09/02 04:54:16;;;;;;;2.73;1.93;;;16.40;99.90;;;;;;5072760;28;20171;-82
2022/09/02 04:56:42;;;;;;;2.17;1.63;;;16.40;99.90;;;;;;5072524;28;20645;-83
2022/09/02 04:59:08;;;;;;;2.30;2.07;;;16.40;99.90;;;;;;5071108;28;20234;-82
2022/09/02 05:01:35;;;;;;;2.17;1.97;;;16.40;99.90;;;;;;5072923;28;20202;-83
2022/09/02 05:04:08;;;;;;;6.77;2.13;;;16.50;99.90;;;;;;5070913;28;20173;-82
2022/09/02 05:06:36;;;;;;;3.60;2.27;;;16.50;99.90;;;;;;5072331;28;20663;-82
2022/09/02 05:09:03;;;;;;;3.47;2.43;;;16.60;99.90;;;;;;5072419;28;20190;-82
2022/09/02 05:11:30;;;;;;;1.90;1.80;;;16.60;99.90;;;;;;5072352;28;20178;-82
2022/09/02 05:13:59;;;;;;;3.33;2.33;;;16.70;99.90;;;;;;5072529;28;20692;-82
2022/09/02 05:16:28;;;;;;;2.37;2.10;;;16.60;99.90;;;;;;5072390;28;20183;-82
2022/09/02 05:18:54;;;;;;;2.53;2.20;;;16.70;99.90;;;;;;5073163;28;20176;-81
2022/09/02 05:21:22;;;;;;;5.10;2.10;;;16.70;99.90;;;;;;5071961;28;20171;-81
2022/09/02 05:23:48;;;;;;;2.63;2.17;;;16.70;99.90;;;;;;5074235;28;20550;-81
2022/09/02 05:26:13;;;;;;;2.10;2.00;;;16.60;99.90;;;;;;5076925;28;20237;-81
2022/09/02 05:28:42;;;;;;;6.10;2.70;;;16.70;99.90;;;;;;5094227;28;20179;-81
2022/09/02 05:31:19;;;;;;;3.53;2.20;;;16.70;99.90;;;;;;5084365;28;20262;-81
2022/09/02 05:33:45;;;;;;;2.40;2.20;;;16.90;99.90;;;;;;5072916;28;20698;-81
2022/09/02 05:36:14;;;;;;;5.97;2.27;;;16.80;99.90;;;;;;5073339;28;20182;-81
2022/09/02 05:38:42;;;;;;;3.00;2.60;;;16.90;99.90;;;;;;5073158;28;20209;-81
2022/09/02 05:41:11;;;;;;;5.03;2.60;;;16.80;99.90;;;;;;5074495;28;20627;-81
2022/09/02 05:43:38;;;;;;;3.20;2.43;;;16.80;99.90;;;;;;5073528;28;20171;-81
2022/09/02 05:46:07;;;;;;;5.47;2.30;;;16.80;99.90;;;;;;5072978;28;20681;-81
2022/09/02 05:51:18;;;;;;;2.30;2.20;;;16.80;99.90;;;;;;5072537;28;20220;-81
2022/09/02 05:53:44;;;;;;;2.07;1.87;;;16.90;99.90;;;;;;5072578;28;20171;-81
2022/09/02 05:56:10;;;;;;;4.07;2.13;;;16.80;99.90;;;;;;5072765;28;20205;-82
2022/09/02 05:58:37;;;;;;;2.03;1.90;;;16.80;99.90;;;;;;5072071;28;20243;-84
2022/09/02 06:01:12;;;;;;;6.37;2.10;;;16.80;99.90;;;;;;5072877;28;20228;-81
2022/09/02 06:03:38;;;;;;;5.30;1.80;;;16.80;99.90;;;;;;5073285;28;20178;-81
2022/09/02 06:06:04;;;;;;;2.00;1.90;;;16.60;99.90;;;;;;5073270;28;20333;-81
2022/09/02 06:08:31;;;;;;;4.10;2.40;;;16.50;99.90;;;;;;5073607;28;20177;-81
2022/09/02 06:10:59;;;;;;;3.13;2.00;;;16.50;99.90;;;;;;5072861;28;20171;-81
2022/09/02 06:13:29;;;;;;;4.33;2.33;;;16.60;99.90;;;;;;5072326;28;20171;-81
2022/09/02 06:15:56;;;;;;;2.10;2.00;;;16.70;99.90;;;;;;5072399;28;20179;-82
2022/09/02 06:18:25;;;;;;;2.20;2.10;;;16.70;99.90;;;;;;5075353;28;20171;-79
2022/09/02 06:20:51;;;;;;;2.50;2.30;;;16.90;99.90;;;;;;5074291;28;20175;-81
2022/09/02 06:23:17;;;;;;;3.30;1.93;;;16.90;99.90;;;;;;5072930;28;20248;-82
2022/09/02 06:25:45;;;;;;;3.53;2.00;;;16.80;99.90;;;;;;5071966;28;20230;-83
2022/09/02 06:28:13;;;;;;;4.20;2.10;;;16.80;99.90;;;;;;5072008;28;20206;-81
2022/09/02 06:30:41;;;;;;;2.33;2.00;;;16.70;99.90;;;;;;5071211;28;20183;-81
2022/09/02 06:33:06;;;;;;;4.87;2.20;;;16.70;99.90;;;;;;5074957;28;20209;-82
2022/09/02 06:35:37;;;;;;;4.03;2.00;;;16.70;99.90;;;;;;5072994;28;20175;-81
2022/09/02 06:38:03;;;;;;;6.50;1.80;;;16.80;99.90;;;;;;5073850;28;20182;-82
2022/09/02 06:40:29;;;;;;;3.07;2.33;;;17.00;99.90;;;;;;5070345;28;20183;-82
2022/09/02 06:42:55;;;;;;;2.40;2.03;;;17.10;99.90;;;;;;5071468;28;20232;-82
2022/09/02 06:45:24;;;;;;;2.03;1.70;;;17.20;99.90;;;;;;5071677;28;20199;-83
2022/09/02 06:47:54;;;;;;;3.43;2.10;;;17.20;99.90;;;;;;5071885;28;20273;-83
2022/09/02 06:50:21;;;;;;;4.17;2.10;;;17.20;99.90;;;;;;5072306;28;20519;-83
2022/09/02 06:52:47;;;;;;;6.17;2.17;;;17.30;99.90;;;;;;5072395;28;20202;-84
2022/09/02 06:55:15;;;;;;;2.70;2.17;;;17.30;99.90;;;;;;5072128;28;20232;-83
2022/09/02 06:57:43;;;;;;;7.67;2.33;;;17.40;99.90;;;;;;5071712;28;20218;-83
2022/09/02 07:00:09;;;;;;;6.00;2.13;;;17.50;99.90;;;;;;5072517;28;20202;-83
2022/09/02 07:05:08;;;;;;;4.13;2.60;;;17.60;99.90;;;;;;5070970;28;20202;-83
2022/09/02 07:05:30;;;;;;;2.33;2.13;;;17.60;99.90;;;;;;5083398;28;20224;-83
2022/09/02 07:07:56;;;;;;;4.87;2.20;;;17.70;99.90;;;;;;5094043;28;20166;-82
2022/09/02 07:10:22;;;;;;;5.37;2.20;;;17.80;99.90;;;;;;5079583;28;20168;-83
2022/09/02 07:12:48;;;;;;;2.13;2.03;;;17.90;99.90;;;;;;5073006;28;20541;-83
2022/09/02 07:15:13;;;;;;;5.40;2.40;;;17.90;99.90;;;;;;5070668;28;20175;-83
2022/09/02 07:17:40;;;;;;;2.57;2.10;;;18.00;99.90;;;;;;5069976;28;20178;-83
2022/09/02 07:20:06;;;;;;;2.30;2.10;;;17.90;99.90;;;;;;5070249;28;20185;-83
2022/09/02 07:22:32;;;;;;;2.40;2.20;;;18.00;99.90;;;;;;5070535;28;20590;-83
2022/09/02 07:24:58;;;;;;;3.17;1.70;;;18.10;99.90;;;;;;5070395;28;20960;-83
2022/09/02 07:27:23;;;;;;;1.80;1.70;;;18.10;99.90;;;;;;5068458;28;20523;-84
2022/09/02 07:29:51;;;;;;;2.03;1.70;;;18.10;99.90;;;;;;5069860;28;20635;-83
2022/09/02 07:32:18;;;;;;;1.80;1.70;;;18.20;99.90;;;;;;5068658;28;20183;-84
2022/09/02 07:34:43;;;;;;;2.03;1.80;;;18.30;99.90;;;;;;5068484;28;20650;-84
2022/09/02 07:37:10;;;;;;;2.17;1.97;;;18.50;99.90;;;;;;5070022;28;20191;-84
2022/09/02 07:39:36;;;;;;;3.63;1.90;;;;;;;;;;5070549;28;20175;-82
2022/09/02 07:42:02;;;;;;;4.80;2.37;;;18.60;99.90;;;;;;5070129;28;20171;-83
2022/09/02 07:44:28;;;;;;;3.23;1.90;;;18.60;99.90;;;;;;5068864;28;20252;-83
2022/09/02 07:46:54;;;;;;;1.80;1.70;;;18.50;99.90;;;;;;5069772;28;20618;-83
2022/09/02 07:49:21;;;;;;;1.80;1.70;;;18.60;99.90;;;;;;5069510;28;20171;-83
2022/09/02 07:51:48;;;;;;;2.00;1.80;;;18.70;99.90;;;;;;5068486;28;20186;-84
2022/09/02 07:54:17;;;;;;;3.13;2.07;;;18.70;99.90;;;;;;5068180;28;20214;-84
2022/09/02 07:56:42;;;;;;;3.23;1.90;;;18.80;99.90;;;;;;5069580;28;20171;-83
2022/09/02 07:59:09;;;;;;;2.20;1.93;;;18.90;99.90;;;;;;5069528;28;20223;-83
2022/09/02 08:01:36;;;;;;;1.80;1.70;;;19.00;99.90;;;;;;5070180;28;20224;-83
2022/09/02 08:04:03;;;;;;;1.90;1.70;;;19.00;99.90;;;;;;5070485;28;20585;-83
2022/09/02 08:06:30;;;;;;;2.07;1.90;;;18.90;99.80;;;;;;5070929;28;20249;-83
2022/09/02 08:08:56;;;;;;;1.90;1.80;;;19.00;99.90;;;;;;5070983;28;20642;-83
2022/09/02 08:11:22;;;;;;;4.37;2.00;;;19.10;99.70;;;;;;5071473;28;20175;-84
2022/09/02 08:13:49;;;;;;;3.13;1.90;;;19.20;99.30;;;;;;5071615;28;20279;-83
2022/09/02 08:16:15;;;;;;;2.03;1.50;;;19.20;99.20;;;;;;5069384;28;20175;-84
2022/09/02 08:18:41;;;;;;;4.37;1.70;;;19.30;98.40;;;;;;5069166;28;20186;-84
2022/09/02 08:21:07;;;;;;;1.73;1.50;;;19.30;98.90;;;;;;5072172;28;20175;-84
2022/09/02 08:23:33;;;;;;;2.27;1.60;;;19.30;97.60;;;;;;5074278;28;20168;-84
2022/09/02 08:25:59;;;;;;;1.70;1.60;;;19.30;97.90;;;;;;5075118;28;20210;-84
2022/09/02 08:28:26;;;;;;;1.57;1.50;;;19.50;98.10;;;;;;5075055;28;20167;-85
2022/09/02 08:30:53;;;;;;;3.10;2.60;;;19.50;96.50;;;;;;5075953;28;20186;-84
2022/09/02 08:33:20;;;;;;;1.90;1.80;;;19.50;96.00;;;;;;5074426;28;20213;-84
2022/09/02 08:35:47;;;;;;;1.93;1.70;;;19.50;97.20;;;;;;5073095;28;20242;-83
2022/09/02 08:38:13;;;;;;;2.03;1.93;;;19.50;97.70;;;;;;5073097;28;20178;-83
2022/09/02 08:40:40;;;;;;;2.27;2.07;;;19.60;98.10;;;;;;5072770;28;20546;-82
2022/09/02 08:43:37;;;;;;;2.23;2.00;;;19.70;98.10;;;;;;5073863;28;20171;-83
2022/09/02 08:46:03;;;;;;;2.80;1.70;;;19.70;98.30;;;;;;5093247;28;20221;-83
2022/09/02 08:48:51;;;;;;;1.70;1.60;;;19.70;96.40;;;;;;5091059;28;20171;-82
2022/09/02 08:51:41;;;;;;;1.33;1.30;;;19.70;96.00;;;;;;5076370;28;20179;-84
2022/09/02 08:54:19;;;;;;;6.27;1.70;;;19.80;96.30;;;;;;5069325;28;20202;-83
2022/09/02 08:56:45;;;;;;;1.20;1.20;;;19.80;95.70;;;;;;5072544;28;20586;-82
2022/09/02 08:59:14;;;;;;;3.90;1.47;;;19.80;94.20;;;;;;5072120;28;20263;-83
2022/09/02 09:01:46;;;;;;;1.60;1.50;;;19.80;93.70;;;;;;5072607;28;20187;-83
2022/09/02 09:04:30;;;;;;;1.53;1.40;;;19.80;93.50;;;;;;5071215;28;20209;-82
2022/09/02 09:07:05;;;;;;;1.60;1.50;;;19.80;93.70;;;;;;5072436;28;20207;-83
2022/09/02 09:09:39;;;;;;;3.00;1.73;;;19.90;93.30;;;;;;5072293;28;20174;-83
2022/09/02 09:12:32;;;;;;;1.47;1.40;;;20.00;94.90;;;;;;5072684;28;20173;-83
2022/09/02 09:15:30;;;;;;;1.20;1.20;;;20.10;94.00;;;;;;5072525;28;20526;-83
2022/09/02 09:18:06;;;;;;;1.10;1.10;;;20.20;94.30;;;;;;5072338;28;20168;-84
2022/09/02 09:20:37;;;;;;;3.10;1.23;;;20.30;92.20;;;;;;5072167;28;20170;-83
2022/09/02 09:23:12;;;;;;;1.70;1.60;;;20.20;91.70;;;;;;5072335;28;20171;-84
2022/09/02 09:25:38;;;;;;;1.30;1.30;;;20.20;92.30;;;;;;5072378;28;20206;-83
2022/09/02 09:28:03;;;;;;;1.40;1.30;;;20.20;91.90;;;;;;5072205;28;20160;-83
2022/09/02 09:30:29;;;;;;;1.40;1.30;;;20.20;92.80;;;;;;5071948;28;20533;-82
2022/09/02 09:33:03;;;;;;;1.30;1.30;;;20.30;93.60;;;;;;5071377;28;20173;-83
2022/09/02 09:35:46;;;;;;;1.33;1.23;;;20.30;93.70;;;;;;5072093;28;20163;-83
2022/09/02 09:38:13;;;;;;;1.40;1.30;;;20.40;93.70;;;;;;5070389;28;20179;-83
2022/09/02 09:40:39;;;;;;;1.47;1.37;;;20.30;92.30;;;;;;5071734;28;20315;-82
2022/09/02 09:43:05;;;;;;;1.40;1.30;;;20.30;93.30;;;;;;5071628;28;20171;-83
2022/09/02 09:45:37;;;;;;;2.03;1.40;;;20.40;93.60;;;;;;5070033;28;20205;-79
2022/09/02 09:48:18;;;;;;;1.40;1.40;;;20.40;93.10;;;;;;5071456;28;20171;-81
2022/09/02 09:50:55;;;;;;;3.13;1.70;;;20.50;93.20;;;;;;5071933;28;20147;-83
2022/09/02 09:53:24;;;;;;;1.70;1.50;;;20.40;93.20;;;;;;5071753;28;20521;-81
2022/09/02 09:56:12;;;;;;;2.80;1.60;;;20.40;93.10;;;;;;5071250;28;20171;-81
2022/09/02 09:58:38;;;;;;;1.70;1.60;;;20.40;93.00;;;;;;5071515;28;20227;-83
2022/09/02 10:01:31;;;;;;;2.83;1.50;;;20.40;92.90;;;;;;5071379;28;20163;-81
2022/09/02 10:04:28;;;;;;;1.90;1.80;;;20.40;93.60;;;;;;5070248;28;20650;-82
2022/09/02 10:06:53;;;;;;;4.53;1.57;;;20.50;93.50;;;;;;5071012;28;20282;-82
2022/09/02 10:09:19;;;;;;;1.60;1.60;;;20.60;92.80;;;;;;5071148;28;20258;-82
2022/09/02 10:12:04;;;;;;;1.47;1.43;;;20.60;93.10;;;;;;5071273;28;20254;-83
2022/09/02 10:14:41;;;;;;;1.67;1.57;;;20.60;93.50;;;;;;5071075;28;20167;-81
2022/09/02 10:17:41;;;;;;;1.63;1.53;;;20.70;93.90;;;;;;5069983;28;20202;-82
2022/09/02 10:20:17;;;;;;;1.40;1.30;;;20.80;92.90;;;;;;5070957;28;20168;-81
2022/09/02 10:23:21;;;;;;;3.07;1.10;;;20.80;92.10;;;;;;5071125;28;20571;-83
2022/09/02 10:26:05;;;;;;;1.90;1.50;;;20.80;91.00;;;;;;5088612;28;20195;-81
2022/09/02 10:28:53;;;;;;;1.30;1.20;;;20.70;90.60;;;;;;5087518;28;20207;-82
2022/09/02 10:31:58;;;;;;;1.93;1.20;;;20.60;91.70;;;;;;5071376;28;20188;-83
2022/09/02 10:34:40;;;;;;;2.83;1.33;;;20.70;90.90;;;;;;5070527;28;20669;-82
2022/09/02 10:37:14;;;;;;;2.00;1.27;;;20.70;90.60;;;;;;5070809;28;20163;-81
2022/09/02 10:40:02;;;;;;;3.50;1.30;;;20.70;90.80;;;;;;5070396;28;20227;-81
2022/09/02 10:42:55;;;;;;;2.57;1.63;;;20.70;89.00;;;;;;5070437;28;20155;-82
2022/09/02 10:45:34;;;;;;;2.30;1.27;;;20.70;90.70;;;;;;5070545;28;20235;-81
2022/09/02 10:48:29;;;;;;;1.33;1.27;;;20.70;91.50;;;;;;5070402;28;20193;-82
2022/09/02 10:51:14;;;;;;;1.50;1.40;;;20.80;92.10;;;;;;5067527;28;20241;-82
2022/09/02 10:53:43;;;;;;;2.10;1.20;;;20.90;91.50;;;;;;5070213;28;20197;-82
2022/09/02 10:56:20;;;;;;;1.50;1.40;;;21.00;90.60;;;;;;5070345;28;20263;-82
2022/09/02 10:59:15;;;;;;;3.77;1.37;;;20.90;90.40;;;;;;5070042;28;20310;-82
2022/09/02 11:01:49;;;;;;;1.83;1.50;;;21.00;91.20;;;;;;5070378;28;20177;-82
2022/09/02 11:04:55;;;;;;;1.43;1.20;;;21.10;91.80;;;;;;5070859;28;20155;-82
2022/09/02 11:07:30;;;;;;;1.23;1.23;;;21.20;91.30;;;;;;5069669;28;20202;-82
2022/09/02 11:10:02;;;;;;;1.90;1.70;;;21.30;91.50;;;;;;5070876;28;20170;-81
2022/09/02 11:12:43;;;;;;;1.40;1.30;;;21.50;91.90;;;;;;5071692;28;20178;-82
2022/09/02 11:15:20;;;;;;;1.30;1.30;;;21.70;91.10;;;;;;5070765;28;20521;-81
2022/09/02 11:18:01;;;;;;;1.30;1.30;;;21.60;90.80;;;;;;5072218;28;20163;-83
2022/09/02 11:21:04;;;;;;;1.07;1.00;;;21.70;90.80;;;;;;5070308;28;20167;-81
2022/09/02 11:23:40;;;;;;;1.50;1.40;;;21.80;90.30;;;;;;5070218;28;20179;-82
2022/09/02 11:26:09;;;;;;;1.33;1.27;;;21.70;90.00;;;;;;5070316;28;20202;-82
2022/09/02 11:28:53;;;;;;;1.47;1.40;;;21.80;90.00;;;;;;5070207;28;20199;-81
2022/09/02 11:31:33;;;;;;;1.80;1.20;;;21.90;90.00;;;;;;5068830;28;20213;-82
2022/09/02 11:34:15;;;;;;;1.13;1.13;;;22.10;87.70;;;;;;5069920;28;20877;-82
2022/09/02 11:36:41;;;;;;;1.20;1.10;;;22.10;86.20;;;;;;5068956;28;20646;-82
2022/09/02 11:39:09;;;;;;;1.20;1.20;;;22.00;84.40;;;;;;5070047;28;20250;-82
2022/09/02 11:41:50;;;;;;;1.27;1.07;;;22.10;87.50;;;;;;5070128;28;20174;-82
2022/09/02 11:44:25;;;;;;;1.43;1.33;;;22.20;86.00;;;;;;5069971;28;20229;-82
2022/09/02 11:47:19;;;;;;;1.40;1.30;;;22.30;86.60;;;;;;5069708;28;20202;-81
2022/09/02 11:50:18;;;;;;;1.10;1.10;;;22.30;85.60;;;;;;5069845;28;20174;-82
2022/09/02 11:53:01;;;;;;;1.03;1.03;;;22.50;85.30;;;;;;5069869;28;20167;-82
2022/09/02 11:55:40;;;;;;;1.35;1.10;;;22.40;83.90;;;;;;5069922;28;20243;-82
2022/09/02 11:58:06;;;;;;;2.83;1.25;;;22.50;84.10;;;;;;5073618;28;20229;-82
2022/09/02 12:00:38;;;;;;;1.70;1.50;;;22.50;83.00;;;;;;5074527;28;20591;-81
2022/09/02 12:03:03;;;;;;;1.42;1.33;;;22.50;83.10;;;;;;5076258;28;20494;-81
2022/09/02 12:05:30;;;;;;;1.23;1.13;;;22.60;83.20;;;;;;5084948;28;20214;-82
2022/09/02 12:08:03;;;;;;;1.80;1.40;;;22.60;83.50;;;;;;5086260;28;20529;-82
2022/09/02 12:10:47;;;;;;;2.07;1.53;;;22.70;82.40;;;;;;5077341;28;20159;-82
2022/09/02 12:13:31;;;;;;;3.90;1.60;;;22.80;82.90;;;;;;5073513;28;20262;-82
2022/09/02 12:16:15;;;;;;;1.23;1.20;;;23.00;84.20;;;;;;5073472;28;20630;-82
2022/09/02 12:19:07;;;;;;;1.52;1.42;;;23.40;83.00;;;;;;5073414;28;20175;-82
2022/09/02 12:21:34;;;;;;;1.92;1.73;;;23.40;83.10;;;;;;5073297;28;20171;-82
2022/09/02 12:24:00;;;;;;;1.88;1.88;;;23.70;82.60;;;;;;5073336;28;20183;-82
2022/09/02 12:26:46;;;;;;;1.90;1.35;;;24.00;82.60;;;;;;5073086;28;20199;-82
2022/09/02 12:29:18;;;;;;;1.08;1.08;;;24.10;80.40;;;;;;5068788;28;20188;-82
2022/09/02 12:31:45;;;;;;;1.48;1.20;;;24.00;79.20;;;;;;5072805;28;20179;-82
2022/09/02 12:34:21;;;;;;;2.78;1.33;;;23.90;81.60;;;;;;5073196;28;20179;-82
2022/09/02 12:36:46;;;;;;;2.60;1.30;;;23.80;82.80;;;;;;5072664;28;20642;-82
2022/09/02 12:39:26;;;;;;;1.40;1.30;;;23.80;82.90;;;;;;5072784;28;20217;-81
2022/09/02 12:42:01;;;;;;;2.65;1.40;;;23.90;81.30;;;;;;5072758;28;20170;-82
2022/09/02 12:44:41;;;;;;;1.40;1.30;;;24.00;80.00;;;;;;5072712;28;20491;-82
2022/09/02 12:47:20;;;;;;;1.80;1.70;;;24.10;80.60;;;;;;5072888;28;20205;-82
2022/09/02 12:50:06;;;;;;;3.47;2.22;;;24.20;81.40;;;;;;5072629;28;20217;-82
2022/09/02 12:52:40;;;;;;;1.45;1.35;;;24.40;81.80;;;;;;5072724;28;20182;-82
2022/09/02 12:55:21;;;;;;;2.15;1.65;;;24.40;78.20;;;;;;5071626;28;20175;-82
2022/09/02 12:57:50;;;;;;;1.42;1.40;;;24.50;79.40;;;;;;5070936;28;20372;-82
2022/09/02 13:00:38;;;;;;;1.25;1.25;;;24.40;78.70;;;;;;5074428;28;20167;-81
2022/09/02 13:03:25;;;;;;;1.33;1.33;;;24.40;81.00;;;;;;5072415;28;20159;-82
2022/09/02 13:06:11;;;;;;;2.38;1.17;;;24.50;77.20;;;;;;5071975;28;20690;-82
2022/09/02 13:09:01;;;;;;;1.35;1.27;;;24.20;76.50;;;;;;5070937;28;20171;-82
2022/09/02 13:11:52;;;;;;;1.10;1.10;;;24.00;79.10;;;;;;5071902;28;20168;-82